Blue Jay, CA (92317)

8:51 AM PDT on May 23, 2015 (GMT -0700)
Lake Arrowhead | | Change Station
CLOSE
Current Station
Personal Weather Station
Location: Blue Jay, CA
Elevation: 5200 ft
Nearby Weather Stations

Elev 5200 ft 34.27 °N, 117.22 °W | Updated 5 seconds ago

Clear
Clear
49.0 °F
Feels Like 49 °F
N
0.0
Wind Variable Wind from SSW
Gusts 0.0 mph

Today
High -- | Low -- °F
--% Chance of Precip.
Yesterday
High -- | Low -- °F
Precip. -- in
5:41 AM 7:49 PM
Waxing Crescent, 31% visible
Pressure 30.12 in
Visibility 10.0 miles
Clouds Clear
Windchill 49 °F
Dew Point 44 °F
Humidity 83%
Rainfall 0.00 in
Snow Depth Not available.
UV 4 out of 12
Pollen 4.80 out of 12
Air Quality Not available.
Flu Activity Sporadic
METAR KL35 231535Z AUTO 00000KT 10SM CLR 08/00 A3012 RMK AO2

More Conditions Fewer Conditions

Pressure 30.12 in
Visibility 10.0 miles
Clouds Clear
Windchill 49 °F
Dew Point 44 °F
Humidity 83%
Rainfall 0.00 in
Snow Depth Not available.
UV 4 out of 12
Pollen 4.80 out of 12
Air Quality Not available.
Flu Activity Sporadic
METAR KL35 231535Z AUTO 00000KT 10SM CLR 08/00 A3012 RMK AO2

More Conditions Fewer Conditions

10-Day Weather Forecast

Almanac

Astronomy

May. 23, 2015 Rise Set
Actual Time
Civil Twilight
Nautical Twilight
Astronomical Twilight
Moon
Length of Visible Light
Length of Day
Tomorrow will be .
, % of the Moon is Illuminated

Today's Extremes

State Highs State Lows

Community

WunderPhotos

Upload Photos

1,823,504 photos uploaded!

WunderBlogs® & News

Nearby

Air Quality

  Air Quality AQ Index Pollutant
Not available.

Snow Depth

Station Depth Elevation

Earthquake Activity

City Distance Mag. Time & Date
Minimum magnitude displayed is 2.5.

Coastal Water Temperatures

Place Temperature

Stations

Nearby Weather Stations

Station Location Temp. Windchill Dew Point Humidity Wind Precip. Elev Updated Type